createdAt,value
2019-04-10T00:00:30.674Z,3.94
2019-04-10T00:05:38.245Z,4.44
2019-04-10T00:10:45.933Z,3.81
2019-04-10T00:15:54.672Z,7.97
2019-04-10T00:21:02.017Z,3.21
2019-04-10T00:26:09.906Z,3.06
2019-04-10T00:31:17.896Z,2.77
2019-04-10T00:36:24.900Z,2.60
2019-04-10T00:41:32.673Z,2.53
2019-04-10T00:46:40.261Z,2.99
2019-04-10T00:51:48.034Z,3.11
2019-04-10T00:56:56.967Z,3.97
2019-04-10T01:02:04.396Z,2.53
2019-04-10T01:07:10.685Z,3.33
2019-04-10T01:12:18.185Z,3.35
2019-04-10T01:17:26.304Z,4.79
2019-04-10T01:22:33.274Z,3.04
2019-04-10T01:27:41.163Z,2.55
2019-04-10T01:32:50.166Z,3.52
2019-04-10T01:38:00.798Z,3.06
2019-04-10T01:43:09.908Z,2.93
2019-04-10T01:48:12.072Z,3.16
2019-04-10T01:53:19.634Z,3.09
2019-04-10T01:58:25.828Z,3.24
2019-04-10T02:03:34.098Z,2.68
2019-04-10T02:08:42.337Z,3.01
2019-04-10T02:13:49.930Z,3.56
2019-04-10T02:18:59.590Z,2.93
2019-04-10T02:24:07.035Z,3.25
2019-04-10T02:29:14.023Z,4.09
2019-04-10T02:34:23.295Z,4.21
2019-04-10T02:39:36.171Z,4.12
2019-04-10T02:44:37.706Z,5.54
2019-04-10T02:49:47.076Z,4.42
2019-04-10T02:54:53.838Z,3.56
2019-04-10T03:00:01.706Z,3.03
2019-04-10T03:05:09.415Z,3.47
2019-04-10T03:10:24.546Z,4.32
2019-04-10T03:15:25.042Z,4.19
2019-04-10T03:20:32.271Z,4.16
2019-04-10T03:25:41.300Z,4.36
2019-04-10T03:30:49.381Z,3.61
2019-04-10T03:35:55.533Z,3.70
2019-04-10T03:41:04.024Z,3.61
2019-04-10T03:46:10.936Z,2.62
2019-04-10T03:51:18.582Z,3.05
2019-04-10T03:56:25.558Z,3.70
2019-04-10T04:01:33.453Z,2.77
2019-04-10T04:06:42.021Z,3.37
2019-04-10T04:11:50.202Z,5.08
2019-04-10T04:16:57.765Z,3.31
2019-04-10T04:22:04.545Z,3.61
2019-04-10T04:27:13.199Z,4.34
2019-04-10T04:32:20.172Z,3.84
2019-04-10T04:37:28.699Z,5.35
2019-04-10T04:42:36.436Z,3.32
2019-04-10T04:47:44.382Z,3.04
2019-04-10T04:52:53.567Z,5.39
2019-04-10T04:57:59.868Z,4.85
2019-04-10T05:03:07.792Z,3.61
2019-04-10T05:08:15.577Z,3.91
2019-04-10T05:13:24.295Z,4.61
2019-04-10T05:18:31.635Z,3.94
2019-04-10T05:23:38.489Z,4.71
2019-04-10T05:28:46.449Z,6.47
2019-04-10T05:33:53.279Z,5.47
2019-04-10T05:39:00.405Z,6.82
2019-04-10T05:44:08.236Z,5.53
2019-04-10T05:49:17.099Z,4.99
2019-04-10T05:54:24.598Z,3.68
2019-04-10T05:59:32.068Z,3.91
2019-04-10T06:04:38.520Z,3.73
2019-04-10T06:09:54.057Z,4.08
2019-04-10T06:14:54.609Z,4.22
2019-04-10T06:20:01.703Z,3.82
2019-04-10T06:25:11.739Z,4.68
2019-04-10T06:30:19.368Z,3.81
2019-04-10T06:35:26.162Z,3.76
2019-04-10T06:40:33.475Z,4.16
2019-04-10T06:45:41.955Z,3.54
2019-04-10T06:50:50.881Z,5.50
2019-04-10T06:56:00.646Z,3.10
2019-04-10T07:01:08.273Z,3.28
2019-04-10T07:06:17.606Z,4.61
2019-04-10T07:11:24.131Z,5.80
2019-04-10T07:16:31.506Z,5.47
2019-04-10T07:21:38.347Z,4.50
2019-04-10T07:26:46.591Z,6.58
2019-04-10T07:31:52.898Z,6.09
2019-04-10T07:37:00.219Z,7.60
2019-04-10T07:42:06.868Z,5.23
2019-04-10T07:47:15.345Z,4.55
2019-04-10T07:52:24.083Z,4.32
2019-04-10T07:57:32.875Z,6.25
2019-04-10T08:02:40.693Z,4.81
2019-04-10T08:07:49.673Z,4.81
2019-04-10T08:13:02.266Z,6.37
2019-04-10T08:18:00.314Z,8.02
2019-04-10T08:23:08.912Z,6.67
2019-04-10T08:28:24.131Z,11.48
2019-04-10T08:33:21.827Z,8.59
2019-04-10T08:38:30.043Z,8.17
2019-04-10T08:43:37.558Z,8.01
2019-04-10T08:48:44.085Z,8.16
2019-04-10T08:53:55.233Z,8.95
2019-04-10T08:59:00.558Z,6.73
2019-04-10T09:04:14.636Z,7.05
2019-04-10T09:09:15.343Z,8.07
2019-04-10T09:14:13.008Z,7.51
2019-04-10T09:19:22.161Z,6.56
2019-04-10T09:24:28.424Z,6.48
2019-04-10T09:29:36.551Z,5.89
2019-04-10T09:34:46.617Z,7.41
2019-04-10T09:39:53.447Z,8.18
2019-04-10T09:44:59.089Z,7.47
2019-04-10T09:50:07.771Z,7.01
2019-04-10T09:55:14.441Z,6.29
2019-04-10T10:00:23.363Z,8.01
2019-04-10T10:05:30.684Z,6.65
2019-04-10T10:10:38.211Z,5.89
2019-04-10T10:15:45.240Z,5.86
2019-04-10T10:20:52.314Z,6.82
2019-04-10T10:26:00.305Z,5.47
2019-04-10T10:31:08.186Z,5.16
2019-04-10T10:36:15.942Z,5.31
2019-04-10T10:41:24.339Z,5.04
2019-04-10T10:46:31.489Z,4.34
2019-04-10T10:51:39.211Z,5.21
2019-04-10T10:56:46.692Z,4.61
2019-04-10T11:01:53.871Z,4.40
2019-04-10T11:07:01.194Z,4.59
2019-04-10T11:12:07.833Z,3.99
2019-04-10T11:17:17.553Z,4.43
2019-04-10T11:22:25.761Z,4.72
2019-04-10T11:27:31.824Z,3.24
2019-04-10T11:32:39.795Z,4.10
2019-04-10T11:37:51.364Z,3.36
2019-04-10T11:42:55.545Z,6.37
2019-04-10T11:48:02.706Z,4.15
2019-04-10T11:53:10.609Z,3.83
2019-04-10T11:58:18.226Z,3.81
2019-04-10T12:03:27.004Z,3.33
2019-04-10T12:08:55.243Z,3.69
2019-04-10T12:13:41.760Z,2.87
2019-04-10T12:18:48.973Z,3.08
2019-04-10T12:23:56.985Z,3.37
2019-04-10T12:29:06.643Z,3.86
2019-04-10T12:34:14.930Z,3.50
2019-04-10T12:39:21.246Z,4.86
2019-04-10T12:44:29.648Z,3.36
2019-04-10T12:49:37.208Z,3.23
2019-04-10T12:54:45.154Z,3.67
2019-04-10T12:59:59.402Z,3.46
2019-04-10T13:05:00.858Z,3.96
2019-04-10T13:10:08.826Z,3.86
2019-04-10T13:15:17.823Z,3.45
2019-04-10T13:20:26.054Z,2.72
2019-04-10T13:25:33.098Z,2.81
2019-04-10T13:30:49.715Z,3.89
2019-04-10T13:35:49.742Z,3.50
2019-04-10T13:40:57.584Z,3.05
2019-04-10T13:46:05.263Z,4.02
2019-04-10T13:51:13.153Z,3.57
2019-04-10T13:56:21.090Z,3.60
2019-04-10T14:01:28.651Z,3.27
2019-04-10T14:06:36.568Z,3.56
2019-04-10T14:11:44.246Z,3.36
2019-04-10T14:16:53.029Z,3.78
2019-04-10T14:21:59.765Z,5.65
2019-04-10T14:27:07.764Z,3.53
2019-04-10T14:32:15.353Z,3.13
2019-04-10T14:37:22.156Z,3.16
2019-04-10T14:42:30.633Z,3.06
2019-04-10T14:47:37.886Z,2.96
2019-04-10T14:52:46.082Z,3.03
2019-04-10T14:57:54.917Z,3.33
2019-04-10T15:03:02.231Z,3.01
2019-04-10T15:08:09.283Z,3.84
2019-04-10T15:13:19.571Z,5.31
2019-04-10T15:18:24.297Z,4.18
2019-04-10T15:23:33.733Z,4.18
2019-04-10T15:28:41.976Z,4.93
2019-04-10T15:33:49.830Z,4.52
2019-04-10T15:38:58.238Z,6.93
2019-04-10T15:44:06.031Z,3.59
2019-04-10T15:49:13.815Z,4.46
2019-04-10T15:54:21.717Z,5.80
2019-04-10T15:59:30.258Z,3.80
2019-04-10T16:04:37.106Z,4.14
2019-04-10T16:09:49.963Z,4.45
2019-04-10T16:14:52.823Z,3.50
2019-04-10T16:20:00.485Z,3.96
2019-04-10T16:25:11.614Z,7.06
2019-04-10T16:30:18.609Z,3.51
2019-04-10T16:35:25.460Z,3.79
2019-04-10T16:40:33.914Z,3.68
2019-04-10T16:45:41.126Z,3.57
2019-04-10T16:50:49.780Z,3.80
2019-04-10T16:55:56.872Z,4.10
2019-04-10T17:01:04.341Z,3.48
2019-04-10T17:06:12.206Z,4.97
2019-04-10T17:11:18.798Z,3.76
2019-04-10T17:16:26.503Z,5.04
2019-04-10T17:21:34.337Z,6.28
2019-04-10T17:26:43.322Z,3.58
2019-04-10T17:31:50.676Z,5.57
2019-04-10T17:36:57.589Z,3.74
2019-04-10T17:42:06.177Z,4.04
2019-04-10T17:47:12.919Z,3.67
2019-04-10T17:52:21.219Z,3.70
2019-04-10T17:57:38.206Z,4.36
2019-04-10T18:02:36.753Z,5.29
2019-04-10T18:07:44.001Z,4.63
2019-04-10T18:12:52.326Z,5.26
2019-04-10T18:17:59.740Z,4.34
2019-04-10T18:23:07.158Z,4.64
2019-04-10T18:28:13.730Z,4.65
2019-04-10T18:33:22.382Z,4.35
2019-04-10T18:38:28.515Z,4.69
2019-04-10T18:43:36.403Z,4.87
2019-04-10T18:48:45.678Z,5.26
2019-04-10T18:53:51.524Z,6.51
2019-04-10T18:59:00.427Z,4.65
2019-04-10T19:04:06.381Z,5.60
2019-04-10T19:09:21.024Z,4.95
2019-04-10T19:14:22.462Z,5.86
2019-04-10T19:19:28.626Z,6.08
2019-04-10T19:24:36.434Z,6.14
2019-04-10T19:29:44.133Z,6.87
2019-04-10T19:34:51.942Z,7.56
2019-04-10T19:39:59.545Z,5.74
2019-04-10T19:45:07.915Z,7.21
2019-04-10T19:50:14.554Z,5.65
2019-04-10T19:55:22.338Z,7.39
2019-04-10T20:00:30.529Z,5.57
2019-04-10T20:05:37.458Z,6.36
2019-04-10T20:10:45.697Z,5.41
2019-04-10T20:15:53.018Z,6.40
2019-04-10T20:20:59.726Z,7.34
2019-04-10T20:26:08.634Z,6.02
2019-04-10T20:31:17.236Z,6.80
2019-04-10T20:36:24.736Z,5.82
2019-04-10T20:41:31.122Z,6.90
2019-04-10T20:46:38.849Z,6.94
2019-04-10T20:51:47.448Z,5.89
2019-04-10T20:56:54.827Z,6.50
2019-04-10T21:02:01.955Z,5.95
2019-04-10T21:07:08.220Z,7.18
2019-04-10T21:12:18.144Z,7.89
2019-04-10T21:17:23.134Z,8.59
2019-04-10T21:22:32.771Z,8.03
2019-04-10T21:27:39.758Z,8.34
2019-04-10T21:32:47.481Z,6.44
2019-04-10T21:37:54.848Z,6.71
2019-04-10T21:43:01.612Z,7.01
2019-04-10T21:48:10.449Z,7.11
2019-04-10T21:53:16.869Z,6.75
2019-04-10T21:58:24.611Z,6.43
2019-04-10T22:03:33.681Z,7.23
2019-04-10T22:08:39.692Z,7.04
2019-04-10T22:13:48.565Z,8.41
2019-04-10T22:18:56.066Z,6.67
2019-04-10T22:24:02.381Z,6.69
2019-04-10T22:29:10.759Z,9.46
2019-04-10T22:34:17.421Z,7.89
2019-04-10T22:39:25.369Z,7.46
2019-04-10T22:44:40.477Z,9.93
2019-04-10T22:49:42.763Z,7.02
2019-04-10T22:54:48.686Z,6.48
2019-04-10T22:59:57.413Z,7.03
2019-04-10T23:05:04.082Z,7.36
2019-04-10T23:10:12.923Z,7.38
2019-04-10T23:15:17.897Z,8.44
2019-04-10T23:20:25.877Z,11.02
2019-04-10T23:25:34.326Z,9.97
2019-04-10T23:30:41.321Z,7.89
2019-04-10T23:35:47.874Z,7.07
2019-04-10T23:40:55.638Z,8.12
2019-04-10T23:46:04.216Z,7.83
2019-04-10T23:51:10.620Z,7.09
2019-04-10T23:56:18.299Z,8.13
